Time;durP1;ratioP1;P1;durP2;ratioP2;P2;SDS_P1;SDS_P2;PMS_P1;PMS_P2;Temp;Humidity;BMP_temperature;BMP_pressure;BME280_temperature;BME280_humidity;BME280_pressure;Samples;Min_cycle;Max_cycle;Signal;HPM_P1;HPM_P2
2022/08/03 00:00:43;;;;;;;12.05;4.93;;;19.80;99.90;;;;;;5049641;28;20116;-67
2022/08/03 00:03:09;;;;;;;11.77;5.00;;;19.70;99.90;;;;;;5052337;28;20473;-67
2022/08/03 00:05:35;;;;;;;8.23;4.85;;;19.80;99.90;;;;;;5051363;28;20032;-67
2022/08/03 00:08:01;;;;;;;9.52;4.85;;;19.70;99.90;;;;;;5052715;28;20138;-67
2022/08/03 00:10:27;;;;;;;9.57;4.45;;;19.70;99.90;;;;;;5052462;28;20171;-67
2022/08/03 00:12:53;;;;;;;12.98;4.80;;;19.70;99.90;;;;;;5051113;28;20048;-67
2022/08/03 00:15:19;;;;;;;8.43;4.40;;;19.70;99.90;;;;;;5051071;28;20469;-67
2022/08/03 00:17:45;;;;;;;8.63;4.20;;;19.60;99.90;;;;;;5052225;28;20043;-67
2022/08/03 00:20:12;;;;;;;8.00;4.85;;;19.60;99.90;;;;;;5052297;28;20049;-67
2022/08/03 00:22:38;;;;;;;11.32;4.53;;;19.60;99.90;;;;;;5052203;28;20045;-67
2022/08/03 00:25:04;;;;;;;8.45;4.47;;;19.60;99.90;;;;;;5052214;28;20041;-67
2022/08/03 00:27:29;;;;;;;12.68;4.90;;;19.60;99.90;;;;;;5051287;28;20351;-67
2022/08/03 00:29:55;;;;;;;14.48;4.78;;;19.60;99.90;;;;;;5054687;28;20037;-67
2022/08/03 00:32:21;;;;;;;8.93;5.07;;;19.60;99.90;;;;;;5053413;28;20068;-68
2022/08/03 00:34:46;;;;;;;12.20;5.18;;;19.50;99.90;;;;;;5052343;28;20041;-68
2022/08/03 00:37:12;;;;;;;12.20;4.90;;;19.50;99.90;;;;;;5052236;28;20668;-68
2022/08/03 00:39:38;;;;;;;12.07;5.13;;;19.50;99.90;;;;;;5052261;28;20471;-68
2022/08/03 00:42:04;;;;;;;11.65;4.45;;;19.50;99.90;;;;;;5051856;28;20045;-68
2022/08/03 00:44:30;;;;;;;8.35;5.07;;;19.50;99.90;;;;;;5050293;28;20515;-68
2022/08/03 00:46:55;;;;;;;9.35;5.03;;;19.50;99.90;;;;;;5050456;28;20051;-67
2022/08/03 00:49:21;;;;;;;11.77;4.95;;;19.40;99.90;;;;;;5034028;28;20041;-68
2022/08/03 00:51:47;;;;;;;11.05;5.72;;;19.40;99.90;;;;;;5051657;28;20044;-68
2022/08/03 00:54:14;;;;;;;9.95;5.20;;;19.30;99.90;;;;;;5050313;28;20400;-69
2022/08/03 00:56:41;;;;;;;10.38;5.80;;;19.20;99.90;;;;;;5051749;28;20104;-68
2022/08/03 00:59:09;;;;;;;11.60;5.55;;;19.30;99.90;;;;;;5050315;28;20060;-68
2022/08/03 01:01:34;;;;;;;11.52;5.60;;;19.30;99.90;;;;;;5050189;28;20045;-68
2022/08/03 01:04:00;;;;;;;8.98;5.43;;;19.20;99.90;;;;;;5051402;28;20045;-68
2022/08/03 01:06:41;;;;;;;9.10;5.10;;;19.20;99.90;;;;;;5050073;28;20144;-68
2022/08/03 01:09:28;;;;;;;10.50;5.50;;;19.20;99.90;;;;;;5049961;28;20049;-68
2022/08/03 01:12:03;;;;;;;12.13;5.82;;;19.10;99.90;;;;;;5049762;28;20033;-68
2022/08/03 01:14:44;;;;;;;10.50;5.55;;;19.10;99.90;;;;;;5049584;28;20045;-68
2022/08/03 01:17:16;;;;;;;10.82;5.53;;;19.10;99.90;;;;;;5051089;28;20049;-68
2022/08/03 01:19:52;;;;;;;13.60;6.10;;;19.10;99.90;;;;;;5049963;28;20052;-68
2022/08/03 01:22:36;;;;;;;12.13;5.55;;;19.10;99.90;;;;;;5049592;28;20040;-68
2022/08/03 01:25:08;;;;;;;10.18;4.68;;;19.20;99.90;;;;;;5049945;28;20049;-68
2022/08/03 01:27:37;;;;;;;;;;;19.10;99.90;;;;;;5050421;28;20440;-68
2022/08/03 01:30:07;;;;;;;9.05;5.53;;;19.10;99.90;;;;;;5051357;28;19921;-68
2022/08/03 01:32:53;;;;;;;11.77;4.80;;;19.10;99.90;;;;;;5032734;28;20037;-68
2022/08/03 01:35:43;;;;;;;11.77;5.32;;;19.10;99.90;;;;;;5050095;28;20060;-68
2022/08/03 01:38:23;;;;;;;9.88;5.28;;;19.10;99.90;;;;;;5046542;28;20052;-68
2022/08/03 01:40:53;;;;;;;10.27;4.93;;;19.10;99.90;;;;;;5055309;28;20497;-67
2022/08/03 01:43:23;;;;;;;9.52;4.53;;;19.10;99.90;;;;;;5050772;28;20047;-68
2022/08/03 01:45:50;;;;;;;6.93;4.65;;;19.10;99.90;;;;;;5049743;28;20120;-68
2022/08/03 01:48:17;;;;;;;9.80;5.00;;;19.10;99.90;;;;;;5050496;28;20045;-67
2022/08/03 01:50:45;;;;;;;7.85;5.28;;;19.10;99.90;;;;;;5050801;28;20037;-68
2022/08/03 01:53:14;;;;;;;10.45;4.97;;;19.10;99.90;;;;;;5050030;28;20474;-67
2022/08/03 01:55:42;;;;;;;7.65;5.18;;;19.10;99.90;;;;;;5050844;28;20041;-68
2022/08/03 01:58:08;;;;;;;17.83;6.88;;;19.00;99.90;;;;;;5050637;28;20062;-68
2022/08/03 02:00:37;;;;;;;11.63;4.63;;;19.00;99.90;;;;;;5050622;28;20481;-68
2022/08/03 02:03:07;;;;;;;10.88;4.60;;;19.00;99.90;;;;;;5050107;28;20036;-69
2022/08/03 02:05:33;;;;;;;13.32;5.10;;;19.00;99.90;;;;;;5050645;28;20041;-68
2022/08/03 02:08:02;;;;;;;7.88;4.55;;;19.00;99.90;;;;;;5050576;28;20102;-68
2022/08/03 02:10:29;;;;;;;9.20;4.13;;;18.90;99.90;;;;;;5050458;28;20051;-68
2022/08/03 02:12:58;;;;;;;7.78;4.53;;;18.90;99.90;;;;;;5049907;28;20041;-68
2022/08/03 02:15:24;;;;;;;8.90;4.85;;;19.00;99.90;;;;;;5050190;28;20041;-68
2022/08/03 02:17:51;;;;;;;9.88;4.88;;;19.00;99.90;;;;;;5050286;28;20051;-68
2022/08/03 02:20:18;;;;;;;7.40;4.60;;;18.90;99.90;;;;;;5048962;28;20106;-68
2022/08/03 02:22:45;;;;;;;6.93;3.95;;;19.00;99.90;;;;;;5050505;28;20421;-68
2022/08/03 02:25:13;;;;;;;8.55;4.28;;;18.90;99.90;;;;;;5050187;28;20049;-68
2022/08/03 02:27:46;;;;;;;10.10;4.20;;;18.90;99.90;;;;;;5050440;28;20041;-68
2022/08/03 02:30:13;;;;;;;8.77;4.28;;;18.90;99.90;;;;;;5050378;28;20576;-68
2022/08/03 02:32:41;;;;;;;7.43;4.80;;;18.80;99.90;;;;;;5048304;28;20037;-68
2022/08/03 02:35:12;;;;;;;16.23;4.13;;;18.80;99.90;;;;;;5050151;28;20420;-68
2022/08/03 02:37:43;;;;;;;7.32;4.03;;;18.80;99.90;;;;;;5050060;28;20078;-68
2022/08/03 02:40:10;;;;;;;12.10;5.20;;;18.80;99.90;;;;;;5049954;28;20120;-67
2022/08/03 02:42:38;;;;;;;13.10;4.35;;;18.70;99.90;;;;;;5049407;28;20044;-68
2022/08/03 02:45:09;;;;;;;5.18;3.85;;;18.70;99.90;;;;;;5048442;28;20036;-65
2022/08/03 02:47:36;;;;;;;11.40;4.68;;;18.70;99.90;;;;;;5050714;28;20152;-67
2022/08/03 02:50:03;;;;;;;11.95;5.13;;;18.80;99.90;;;;;;5052039;28;20045;-67
2022/08/03 02:52:32;;;;;;;11.40;4.68;;;18.80;99.90;;;;;;5049687;28;20045;-66
2022/08/03 02:55:01;;;;;;;11.07;4.32;;;18.80;99.90;;;;;;5049706;28;20135;-66
2022/08/03 02:57:29;;;;;;;8.52;4.28;;;18.80;99.90;;;;;;5048436;28;20048;-67
2022/08/03 02:59:57;;;;;;;7.57;4.45;;;18.80;99.90;;;;;;5049880;28;20123;-67
2022/08/03 03:02:24;;;;;;;12.43;4.32;;;18.80;99.90;;;;;;5049374;28;20052;-67
2022/08/03 03:04:51;;;;;;;12.25;4.13;;;18.80;99.90;;;;;;5048617;28;20691;-67
2022/08/03 03:07:17;;;;;;;9.43;4.18;;;18.90;99.90;;;;;;5049656;28;20049;-67
2022/08/03 03:09:44;;;;;;;8.73;4.05;;;18.90;99.90;;;;;;5049657;28;20037;-67
2022/08/03 03:12:11;;;;;;;9.85;4.32;;;18.90;99.90;;;;;;5049806;28;20033;-67
2022/08/03 03:14:38;;;;;;;13.10;3.92;;;19.00;99.90;;;;;;5049539;28;20059;-67
2022/08/03 03:17:06;;;;;;;7.78;3.63;;;18.90;99.90;;;;;;5049122;28;20373;-68
2022/08/03 03:19:32;;;;;;;9.60;4.32;;;19.00;99.90;;;;;;5049646;28;20459;-67
2022/08/03 03:22:01;;;;;;;11.27;3.90;;;19.00;99.90;;;;;;5049613;28;20141;-67
2022/08/03 03:24:29;;;;;;;13.40;3.78;;;19.00;99.90;;;;;;5049088;28;20045;-67
2022/08/03 03:26:55;;;;;;;5.32;3.53;;;19.00;99.90;;;;;;5048070;28;20478;-67
2022/08/03 03:29:21;;;;;;;7.85;3.30;;;19.00;99.90;;;;;;5047993;28;20120;-67
2022/08/03 03:31:47;;;;;;;7.90;3.35;;;19.00;99.90;;;;;;5049221;28;20116;-67
2022/08/03 03:34:13;;;;;;;13.40;3.75;;;19.00;99.90;;;;;;5047735;28;20045;-67
2022/08/03 03:36:39;;;;;;;8.98;3.70;;;19.00;99.90;;;;;;5049934;28;20044;-67
2022/08/03 03:39:05;;;;;;;10.10;3.60;;;18.90;99.90;;;;;;5052061;28;20123;-67
2022/08/03 03:41:31;;;;;;;7.13;3.63;;;18.90;99.90;;;;;;5051716;28;20037;-67
2022/08/03 03:43:57;;;;;;;9.48;3.15;;;19.00;99.90;;;;;;5052782;28;20420;-67
2022/08/03 03:46:22;;;;;;;6.88;3.30;;;19.00;99.90;;;;;;5053199;28;20600;-68
2022/08/03 03:48:48;;;;;;;5.43;3.20;;;19.00;99.90;;;;;;5051595;28;20052;-67
2022/08/03 03:51:14;;;;;;;8.68;3.30;;;19.10;99.90;;;;;;5050098;28;20040;-67
2022/08/03 03:53:41;;;;;;;8.52;2.97;;;19.00;99.90;;;;;;5050498;28;20481;-67
2022/08/03 03:56:06;;;;;;;7.45;3.10;;;19.00;99.90;;;;;;5053015;28;20067;-67
2022/08/03 03:58:32;;;;;;;5.72;2.70;;;19.00;99.90;;;;;;5058136;28;20037;-67
2022/08/03 04:00:58;;;;;;;11.68;3.85;;;18.90;99.90;;;;;;5052853;28;20262;-66
2022/08/03 04:03:24;;;;;;;10.43;3.55;;;18.90;99.90;;;;;;5052195;28;20570;-67
2022/08/03 04:11:22;;;;;;;9.80;4.25;;;18.80;99.90;;;;;;5052554;28;20123;-68
2022/08/03 04:13:55;;;;;;;10.60;3.70;;;18.80;99.90;;;;;;5052481;28;20037;-67
2022/08/03 04:16:25;;;;;;;11.05;3.33;;;18.80;99.90;;;;;;5052469;28;20036;-67
2022/08/03 04:18:55;;;;;;;7.78;3.53;;;18.80;99.90;;;;;;5052157;28;20048;-67
2022/08/03 04:21:22;;;;;;;6.88;3.45;;;18.80;99.90;;;;;;5052179;28;20052;-67
2022/08/03 04:23:51;;;;;;;10.40;3.75;;;18.70;99.90;;;;;;5050757;28;20049;-67
2022/08/03 04:26:20;;;;;;;9.85;3.65;;;18.80;99.90;;;;;;5052625;28;20067;-67
2022/08/03 04:28:49;;;;;;;7.90;3.58;;;18.80;99.90;;;;;;5052419;28;20037;-67
2022/08/03 04:31:15;;;;;;;8.43;3.80;;;18.80;99.90;;;;;;5051159;28;20102;-67
2022/08/03 04:33:43;;;;;;;9.38;3.80;;;18.80;99.90;;;;;;5052012;28;20122;-67
2022/08/03 04:36:13;;;;;;;6.75;3.60;;;18.80;99.90;;;;;;5052191;28;20508;-67
2022/08/03 04:38:51;;;;;;;7.45;3.90;;;18.90;99.90;;;;;;5052264;28;20078;-67
2022/08/03 04:41:18;;;;;;;8.20;3.60;;;18.80;99.90;;;;;;5052095;28;20072;-67
2022/08/03 04:43:45;;;;;;;11.55;3.70;;;18.80;99.90;;;;;;5052022;28;20159;-66
2022/08/03 04:46:12;;;;;;;14.07;4.25;;;18.90;99.90;;;;;;5052042;28;20120;-66
2022/08/03 04:48:39;;;;;;;11.48;4.55;;;18.90;99.90;;;;;;5049269;28;20083;-67
2022/08/03 04:51:05;;;;;;;6.78;4.10;;;19.00;99.90;;;;;;5050717;28;20517;-67
2022/08/03 04:53:30;;;;;;;18.95;4.85;;;19.00;99.90;;;;;;5050110;28;20048;-67
2022/08/03 04:56:04;;;;;;;11.75;4.63;;;19.10;99.90;;;;;;5051894;28;20158;-67
2022/08/03 04:58:29;;;;;;;6.93;4.00;;;19.20;99.90;;;;;;5051951;28;20044;-67
2022/08/03 05:00:55;;;;;;;11.30;4.47;;;19.30;99.90;;;;;;5051533;28;20477;-67
2022/08/03 05:03:20;;;;;;;11.93;4.60;;;19.30;99.90;;;;;;5051643;28;20387;-67
2022/08/03 05:05:46;;;;;;;13.00;4.68;;;19.40;99.90;;;;;;5055188;28;20057;-67
2022/08/03 05:08:12;;;;;;;10.88;4.88;;;19.40;99.90;;;;;;5055477;28;20044;-67
2022/08/03 05:10:37;;;;;;;13.30;4.60;;;19.40;99.90;;;;;;5051799;28;20067;-66
2022/08/03 05:13:03;;;;;;;15.50;4.28;;;19.50;99.90;;;;;;5051215;28;20381;-67
2022/08/03 05:15:29;;;;;;;17.10;5.35;;;19.60;99.90;;;;;;5050271;28;20087;-67
2022/08/03 05:17:54;;;;;;;9.45;4.60;;;19.80;99.90;;;;;;5051637;28;20059;-67
2022/08/03 05:20:20;;;;;;;12.60;5.05;;;19.90;99.90;;;;;;5051562;28;20700;-67
2022/08/03 05:22:45;;;;;;;9.35;4.43;;;20.10;99.90;;;;;;5049622;28;20449;-67
2022/08/03 05:25:11;;;;;;;10.82;4.75;;;20.20;99.90;;;;;;5051326;28;20071;-67
2022/08/03 05:27:36;;;;;;;11.50;4.72;;;20.30;99.90;;;;;;5051212;28;20501;-66
2022/08/03 05:30:03;;;;;;;8.38;4.43;;;20.50;99.90;;;;;;5051024;28;20436;-66
2022/08/03 05:32:28;;;;;;;12.63;4.25;;;20.60;99.90;;;;;;5050728;28;20037;-67
2022/08/03 05:34:54;;;;;;;13.02;4.43;;;20.70;99.90;;;;;;5051181;28;20047;-67
2022/08/03 05:37:19;;;;;;;9.20;4.38;;;20.60;99.90;;;;;;5051098;28;20047;-67
2022/08/03 05:39:45;;;;;;;15.20;4.28;;;20.70;99.90;;;;;;5051055;28;20044;-67
2022/08/03 05:42:13;;;;;;;14.98;4.60;;;20.80;99.90;;;;;;5050912;28;20508;-67
2022/08/03 05:44:39;;;;;;;11.15;4.03;;;20.80;99.90;;;;;;5050699;28;20106;-67
2022/08/03 05:47:05;;;;;;;14.85;4.25;;;20.90;99.90;;;;;;5050987;28;20048;-67
2022/08/03 05:49:30;;;;;;;11.38;4.53;;;21.00;99.90;;;;;;5050808;28;20114;-67
2022/08/03 05:51:56;;;;;;;8.50;4.07;;;21.10;99.90;;;;;;5050599;28;20124;-67
2022/08/03 05:54:21;;;;;;;13.88;5.10;;;21.10;99.90;;;;;;5050553;28;20040;-68
2022/08/03 05:56:47;;;;;;;12.98;3.83;;;21.20;99.90;;;;;;5050712;28;20044;-66
2022/08/03 05:59:13;;;;;;;14.23;4.30;;;21.30;99.90;;;;;;5048872;28;20036;-67
2022/08/03 06:01:38;;;;;;;7.78;3.30;;;21.30;99.90;;;;;;5050775;28;20037;-67
2022/08/03 06:04:04;;;;;;;10.48;4.63;;;21.20;99.90;;;;;;5050562;28;20056;-66
2022/08/03 06:06:30;;;;;;;10.15;3.80;;;21.40;99.90;;;;;;5049252;28;20064;-67
2022/08/03 06:08:55;;;;;;;21.00;4.70;;;21.50;99.90;;;;;;5052852;28;20501;-67
2022/08/03 06:11:21;;;;;;;9.68;3.90;;;21.40;99.90;;;;;;5049132;28;20509;-67
2022/08/03 06:13:46;;;;;;;15.32;4.32;;;21.40;99.90;;;;;;5035074;28;20041;-67
2022/08/03 06:16:12;;;;;;;9.82;4.18;;;21.60;99.90;;;;;;5051018;28;20037;-67
2022/08/03 06:18:39;;;;;;;9.80;4.07;;;21.60;99.90;;;;;;5050322;28;20456;-66
2022/08/03 06:21:04;;;;;;;11.95;4.28;;;21.70;99.90;;;;;;5049907;28;20473;-67
2022/08/03 06:23:30;;;;;;;13.55;4.80;;;21.70;99.90;;;;;;5048674;28;20052;-68
2022/08/03 06:25:56;;;;;;;17.08;4.28;;;21.80;99.90;;;;;;5048791;28;20045;-67
2022/08/03 06:28:21;;;;;;;11.90;4.28;;;21.80;99.90;;;;;;5050204;28;20098;-67
2022/08/03 06:30:47;;;;;;;9.98;4.20;;;21.80;99.90;;;;;;5048525;28;20052;-67
2022/08/03 06:33:13;;;;;;;12.80;4.82;;;21.80;99.90;;;;;;5049763;28;20033;-67
2022/08/03 06:35:38;;;;;;;12.88;4.38;;;21.70;99.90;;;;;;5049943;28;20040;-68
2022/08/03 06:38:04;;;;;;;9.20;4.47;;;21.70;99.90;;;;;;5050377;28;20033;-67
2022/08/03 06:40:30;;;;;;;13.55;4.60;;;21.80;99.90;;;;;;5050276;28;20067;-67
2022/08/03 06:42:57;;;;;;;13.32;3.90;;;22.00;99.90;;;;;;5048226;28;20036;-67
2022/08/03 06:45:23;;;;;;;12.27;4.05;;;22.00;99.90;;;;;;5048414;28;20091;-67
2022/08/03 06:48:17;;;;;;;11.85;3.90;;;22.00;99.90;;;;;;5049921;28;20036;-67
2022/08/03 06:50:43;;;;;;;11.23;4.07;;;22.10;99.90;;;;;;5049879;28;20045;-67
2022/08/03 06:53:09;;;;;;;13.88;5.22;;;22.10;99.90;;;;;;5049574;28;20060;-67
2022/08/03 06:55:34;;;;;;;14.93;4.57;;;22.20;99.90;;;;;;5056292;28;20405;-67
2022/08/03 06:58:00;;;;;;;18.27;4.32;;;22.10;99.90;;;;;;5062465;28;20040;-67
2022/08/03 07:00:27;;;;;;;19.55;3.88;;;22.10;99.90;;;;;;5068430;28;20254;-68
2022/08/03 07:02:52;;;;;;;15.40;4.03;;;22.10;99.90;;;;;;5069456;28;20076;-68
2022/08/03 07:05:18;;;;;;;21.13;4.53;;;22.20;99.90;;;;;;5069951;28;20068;-67
2022/08/03 07:07:44;;;;;;;12.82;3.92;;;22.20;99.90;;;;;;5070166;28;20048;-68
2022/08/03 07:10:10;;;;;;;9.80;3.63;;;22.20;99.90;;;;;;5068283;28;20098;-67
2022/08/03 07:12:36;;;;;;;14.98;4.00;;;22.30;99.90;;;;;;5073406;28;20040;-69
2022/08/03 07:15:03;;;;;;;13.15;3.75;;;22.30;99.90;;;;;;5075352;28;20044;-69
2022/08/03 07:17:30;;;;;;;17.48;4.15;;;22.30;99.90;;;;;;5055692;28;20045;-69
2022/08/03 07:19:56;;;;;;;14.80;4.32;;;22.30;99.90;;;;;;5074380;28;20082;-69
2022/08/03 07:22:22;;;;;;;18.65;4.10;;;22.40;99.90;;;;;;5074178;28;20354;-69
2022/08/03 07:24:48;;;;;;;12.73;4.57;;;22.30;99.90;;;;;;5081747;28;20051;-68
2022/08/03 07:27:15;;;;;;;13.52;4.07;;;22.30;99.90;;;;;;5075787;28;20044;-67
2022/08/03 07:29:40;;;;;;;18.55;3.88;;;22.30;99.90;;;;;;5070455;28;20076;-68
2022/08/03 07:32:06;;;;;;;14.60;4.20;;;22.30;99.90;;;;;;5060128;28;20076;-67
2022/08/03 07:34:32;;;;;;;15.30;3.92;;;22.30;99.90;;;;;;5052034;28;20041;-67
2022/08/03 07:36:57;;;;;;;7.93;3.45;;;22.40;99.90;;;;;;5052427;28;20342;-67
2022/08/03 07:39:23;;;;;;;15.82;3.95;;;22.50;99.90;;;;;;5054406;28;20041;-68
2022/08/03 07:41:50;;;;;;;20.73;4.25;;;22.50;99.90;;;;;;5054083;28;20052;-68
2022/08/03 07:44:16;;;;;;;17.98;4.70;;;22.60;99.90;;;;;;5054668;28;20049;-68
2022/08/03 07:46:42;;;;;;;12.75;4.70;;;22.60;99.90;;;;;;5056221;28;20390;-68
2022/08/03 07:49:08;;;;;;;13.18;4.43;;;22.60;99.90;;;;;;5054217;28;20158;-68
2022/08/03 07:51:34;;;;;;;20.35;4.68;;;22.80;99.90;;;;;;5054462;28;20124;-68
2022/08/03 07:54:00;;;;;;;13.52;4.40;;;22.80;99.90;;;;;;5053284;28;20128;-69
2022/08/03 07:56:26;;;;;;;18.38;4.22;;;22.80;99.90;;;;;;5053949;28;20470;-68
2022/08/03 07:58:52;;;;;;;18.33;3.90;;;22.90;99.90;;;;;;5054910;28;20073;-67
2022/08/03 08:01:18;;;;;;;14.27;3.85;;;22.90;99.90;;;;;;5053574;28;20048;-68
2022/08/03 08:03:47;;;;;;;21.02;4.15;;;23.00;99.90;;;;;;5063137;28;20203;-68
2022/08/03 08:06:14;;;;;;;21.25;4.75;;;23.10;99.90;;;;;;5060420;28;20048;-68
2022/08/03 08:08:40;;;;;;;11.35;4.25;;;23.20;99.90;;;;;;5062695;28;20040;-68
2022/08/03 08:11:06;;;;;;;16.23;3.85;;;23.30;99.90;;;;;;5063340;28;20044;-67
2022/08/03 08:13:32;;;;;;;18.58;3.70;;;23.40;99.90;;;;;;5061176;28;20045;-67
2022/08/03 08:15:57;;;;;;;18.67;4.32;;;23.40;99.90;;;;;;5061345;28;20442;-67
2022/08/03 08:18:23;;;;;;;19.88;4.25;;;23.50;99.90;;;;;;5062930;28;20116;-68
2022/08/03 08:20:49;;;;;;;17.70;3.90;;;23.50;99.90;;;;;;5061432;28;20495;-68
2022/08/03 08:23:21;;;;;;;26.75;5.53;;;23.60;99.90;;;;;;5061041;28;20461;-68
2022/08/03 08:25:47;;;;;;;14.15;4.20;;;23.60;99.90;;;;;;5061804;28;20045;-68
2022/08/03 08:28:13;;;;;;;27.95;4.57;;;23.80;99.90;;;;;;5060607;28;20033;-68
2022/08/03 08:30:38;;;;;;;14.98;3.85;;;23.80;99.90;;;;;;5062538;28;20508;-68
2022/08/03 08:33:04;;;;;;;14.32;3.53;;;23.90;99.90;;;;;;5072716;28;20058;-68
2022/08/03 08:35:29;;;;;;;18.15;4.30;;;24.00;99.90;;;;;;5069607;28;20075;-68
2022/08/03 08:37:55;;;;;;;17.10;4.80;;;24.10;99.90;;;;;;5059288;28;20462;-68
2022/08/03 08:40:21;;;;;;;20.08;4.20;;;24.20;99.90;;;;;;5052377;28;20076;-68
2022/08/03 08:42:47;;;;;;;12.32;3.72;;;24.20;99.90;;;;;;5052128;28;20171;-68
2022/08/03 08:45:14;;;;;;;19.67;4.68;;;24.30;99.90;;;;;;5062093;28;20664;-68
2022/08/03 08:47:44;;;;;;;18.85;3.92;;;24.30;99.90;;;;;;5063302;28;20044;-68
2022/08/03 08:50:10;;;;;;;25.98;4.30;;;24.40;99.90;;;;;;5060178;28;20488;-68
2022/08/03 08:52:39;;;;;;;17.05;4.15;;;24.40;99.90;;;;;;5059567;28;20044;-67
2022/08/03 08:55:08;;;;;;;11.65;4.03;;;24.40;99.90;;;;;;5059389;28;20112;-67
2022/08/03 08:57:38;;;;;;;15.55;3.70;;;24.50;99.90;;;;;;5061586;28;20417;-67
2022/08/03 09:00:12;;;;;;;16.40;4.20;;;24.50;99.90;;;;;;5042580;28;20489;-68
2022/08/03 09:02:38;;;;;;;22.65;5.07;;;24.60;99.90;;;;;;5060236;28;20505;-68
2022/08/03 09:05:04;;;;;;;13.63;3.75;;;24.60;99.90;;;;;;5062496;28;20072;-68
2022/08/03 09:07:29;;;;;;;15.00;4.03;;;24.70;99.90;;;;;;5061184;28;20099;-68
2022/08/03 09:09:55;;;;;;;25.30;3.88;;;24.70;99.90;;;;;;5061154;28;20044;-68
2022/08/03 09:12:21;;;;;;;11.70;3.53;;;24.70;99.90;;;;;;5062284;28;20043;-66
2022/08/03 09:14:47;;;;;;;20.75;5.13;;;24.80;99.90;;;;;;5059077;28;20037;-66
2022/08/03 09:17:12;;;;;;;16.15;3.80;;;24.90;99.90;;;;;;5060631;28;20040;-68
2022/08/03 09:19:38;;;;;;;21.83;4.35;;;25.00;99.90;;;;;;5062191;28;20507;-68
2022/08/03 09:22:07;;;;;;;21.35;3.88;;;25.00;99.90;;;;;;5060216;28;20033;-68
2022/08/03 09:24:33;;;;;;;25.52;4.15;;;25.10;99.90;;;;;;5059324;28;20033;-68
2022/08/03 09:26:59;;;;;;;15.60;3.67;;;25.20;99.90;;;;;;5060787;28;20051;-68
2022/08/03 09:29:24;;;;;;;20.60;3.40;;;25.20;99.90;;;;;;5059863;28;20116;-68
2022/08/03 09:31:59;;;;;;;13.52;4.47;;;25.20;99.90;;;;;;5061049;28;20382;-68
2022/08/03 09:34:27;;;;;;;26.08;4.78;;;25.30;99.90;;;;;;5058446;28;20075;-68
2022/08/03 09:36:53;;;;;;;19.08;3.58;;;25.30;99.90;;;;;;5060497;28;20093;-68
2022/08/03 09:39:25;;;;;;;20.33;3.75;;;25.40;99.90;;;;;;5060411;28;20047;-68
2022/08/03 09:42:06;;;;;;;24.17;4.55;;;25.60;99.90;;;;;;5059717;28;20040;-68
2022/08/03 09:44:43;;;;;;;18.23;3.65;;;25.70;99.90;;;;;;5064761;28;20492;-68
2022/08/03 09:47:10;;;;;;;14.82;3.75;;;25.80;99.90;;;;;;5063243;28;20071;-68
2022/08/03 09:49:37;;;;;;;18.90;3.75;;;25.80;99.90;;;;;;5050916;28;20576;-68
2022/08/03 09:52:17;;;;;;;14.13;3.80;;;25.90;99.90;;;;;;5050088;28;20346;-68
2022/08/03 09:54:44;;;;;;;22.15;4.30;;;25.90;99.90;;;;;;5051000;28;20657;-68
2022/08/03 09:57:26;;;;;;;15.52;3.50;;;26.00;99.90;;;;;;5051276;28;20112;-68
2022/08/03 09:59:56;;;;;;;16.77;3.58;;;25.90;99.90;;;;;;5051048;28;20744;-69
2022/08/03 10:02:23;;;;;;;20.70;4.00;;;25.90;99.90;;;;;;5050544;28;20478;-68
2022/08/03 10:04:51;;;;;;;18.85;3.97;;;26.10;99.90;;;;;;5050757;28;20041;-68
2022/08/03 10:07:18;;;;;;;14.57;3.40;;;26.00;99.90;;;;;;5049654;28;20657;-68
2022/08/03 10:10:00;;;;;;;19.75;3.15;;;26.10;99.90;;;;;;5050834;28;20369;-69
2022/08/03 10:12:27;;;;;;;19.17;4.15;;;26.20;99.90;;;;;;5050617;28;20044;-69
2022/08/03 10:14:53;;;;;;;16.25;3.55;;;26.30;99.90;;;;;;5050825;28;20037;-68
2022/08/03 10:17:21;;;;;;;17.77;3.42;;;26.30;99.90;;;;;;5049982;28;20068;-69
2022/08/03 10:19:47;;;;;;;22.67;3.40;;;26.30;99.90;;;;;;5050702;28;20060;-68
2022/08/03 10:22:21;;;;;;;13.32;3.00;;;26.40;99.90;;;;;;5049204;28;20037;-70
2022/08/03 10:24:54;;;;;;;18.10;3.60;;;26.50;99.90;;;;;;5051647;28;20048;-68
2022/08/03 10:27:22;;;;;;;11.90;3.50;;;26.50;99.90;;;;;;5051828;28;20088;-68
2022/08/03 10:29:53;;;;;;;18.98;2.95;;;26.50;99.90;;;;;;5051582;28;20425;-68
2022/08/03 10:32:32;;;;;;;17.37;4.50;;;26.60;99.90;;;;;;5050059;28;20048;-69
2022/08/03 10:35:03;;;;;;;17.15;4.22;;;26.60;99.90;;;;;;5050414;28;20279;-68
2022/08/03 10:37:33;;;;;;;18.63;3.27;;;26.60;99.90;;;;;;5050283;28;20051;-68
2022/08/03 10:39:59;;;;;;;15.65;3.47;;;26.70;99.90;;;;;;5048789;28;20060;-68
2022/08/03 10:42:30;;;;;;;16.80;3.25;;;26.70;99.90;;;;;;5048434;28;20098;-68
2022/08/03 10:45:08;;;;;;;12.40;2.78;;;26.70;99.90;;;;;;5049175;28;20049;-68
2022/08/03 10:47:34;;;;;;;19.95;2.92;;;26.70;99.90;;;;;;5049345;28;20041;-68
2022/08/03 10:50:00;;;;;;;21.67;3.03;;;26.80;99.90;;;;;;5060618;28;20049;-68
2022/08/03 10:52:26;;;;;;;15.80;2.80;;;26.80;99.90;;;;;;5057519;28;20041;-68
2022/08/03 10:57:43;;;;;;;18.42;3.00;;;27.00;99.90;;;;;;5050181;28;20048;-68
2022/08/03 11:00:10;;;;;;;18.73;3.30;;;27.00;99.90;;;;;;5050094;28;20404;-68
2022/08/03 11:03:14;;;;;;;19.08;3.35;;;27.10;99.90;;;;;;5048195;28;20545;-68
2022/08/03 11:05:44;;;;;;;19.20;3.47;;;27.10;99.90;;;;;;5048514;28;20072;-68
2022/08/03 11:08:33;;;;;;;15.32;2.90;;;27.10;99.90;;;;;;5048621;28;20492;-68
2022/08/03 11:11:02;;;;;;;13.82;3.00;;;27.30;99.90;;;;;;5049756;28;20667;-69
2022/08/03 11:13:30;;;;;;;21.33;3.67;;;27.40;99.90;;;;;;5049605;28;20045;-68
2022/08/03 11:15:58;;;;;;;18.58;3.35;;;27.50;99.90;;;;;;5049898;28;20111;-67
2022/08/03 11:18:24;;;;;;;17.67;2.95;;;27.50;99.90;;;;;;5048226;28;20041;-67
2022/08/03 11:20:52;;;;;;;22.13;3.60;;;27.70;99.90;;;;;;5048202;28;20045;-67
2022/08/03 11:23:46;;;;;;;18.45;2.70;;;27.70;99.90;;;;;;5049395;28;20048;-67
2022/08/03 11:26:21;;;;;;;20.27;3.03;;;27.70;99.90;;;;;;5049971;28;20049;-67
2022/08/03 11:28:47;;;;;;;13.82;3.05;;;27.80;99.90;;;;;;5049743;28;20142;-67
2022/08/03 11:31:22;;;;;;;21.80;2.70;;;27.90;99.90;;;;;;5048064;28;20037;-67
2022/08/03 11:34:07;;;;;;;13.32;2.63;;;27.90;99.90;;;;;;5049258;28;20075;-67
2022/08/03 11:37:10;;;;;;;13.43;3.08;;;28.00;99.90;;;;;;5049733;28;20455;-68
2022/08/03 11:54:21;;;;;;;15.65;2.95;;;28.30;99.90;;;;;;5048692;28;20075;-68
2022/08/03 11:56:49;;;;;;;12.50;3.08;;;28.30;99.90;;;;;;5033648;28;20538;-67
2022/08/03 11:59:17;;;;;;;19.10;2.88;;;28.30;99.90;;;;;;5069163;28;20085;-68
2022/08/03 12:01:42;;;;;;;10.52;2.15;;;28.30;99.90;;;;;;5059981;28;20052;-68
2022/08/03 12:04:09;;;;;;;20.35;2.72;;;28.30;99.90;;;;;;5051556;28;20075;-68
2022/08/03 12:09:29;;;;;;;14.88;3.03;;;28.40;99.90;;;;;;5030406;28;20061;-68
2022/08/03 12:11:55;;;;;;;21.58;3.05;;;28.30;99.90;;;;;;5013952;28;20394;-68
2022/08/03 12:14:21;;;;;;;15.77;2.90;;;28.30;99.90;;;;;;5030169;28;20045;-68
2022/08/03 12:16:47;;;;;;;13.13;2.83;;;28.20;99.90;;;;;;5013794;28;20050;-68
2022/08/03 12:19:13;;;;;;;15.40;2.97;;;28.30;99.90;;;;;;5013432;28;20176;-68
2022/08/03 12:21:49;;;;;;;11.73;2.35;;;28.30;99.90;;;;;;5014047;28;20207;-67
2022/08/03 12:24:15;;;;;;;17.17;2.42;;;28.40;99.90;;;;;;4997266;28;20103;-68
2022/08/03 12:26:49;;;;;;;13.60;2.53;;;28.50;99.90;;;;;;5030281;28;20410;-67
2022/08/03 12:29:21;;;;;;;17.63;2.80;;;28.50;99.90;;;;;;5013608;28;20046;-68
2022/08/03 12:31:48;;;;;;;20.45;2.80;;;28.50;99.90;;;;;;5029971;28;20045;-69
2022/08/03 12:34:14;;;;;;;15.88;2.50;;;28.50;99.90;;;;;;5029937;28;20037;-68
2022/08/03 12:36:54;;;;;;;16.98;2.60;;;28.50;99.90;;;;;;5013571;28;20513;-68
2022/08/03 12:39:25;;;;;;;14.05;2.47;;;28.60;99.90;;;;;;5030029;28;20057;-67
2022/08/03 12:41:54;;;;;;;15.52;2.45;;;28.50;99.90;;;;;;5013297;28;20163;-68
2022/08/03 12:44:30;;;;;;;15.25;2.88;;;28.60;99.90;;;;;;5029786;28;20048;-68
2022/08/03 12:47:00;;;;;;;20.88;3.22;;;28.70;99.90;;;;;;5050789;28;20110;-68
2022/08/03 12:49:26;;;;;;;20.02;3.10;;;28.60;99.40;;;;;;5051127;28;20045;-67
2022/08/03 12:51:52;;;;;;;17.67;2.78;;;28.70;99.90;;;;;;5052252;28;20037;-68
2022/08/03 12:54:20;;;;;;;18.75;2.70;;;28.80;99.90;;;;;;5051935;28;20446;-68
2022/08/03 12:57:09;;;;;;;14.40;2.90;;;28.80;99.90;;;;;;5052155;28;20045;-68
2022/08/03 12:59:36;;;;;;;14.63;2.22;;;28.90;99.70;;;;;;5052473;28;20083;-68
2022/08/03 13:02:03;;;;;;;21.30;3.17;;;28.90;99.90;;;;;;5052309;28;20120;-67
2022/08/03 13:04:32;;;;;;;15.40;2.70;;;28.90;98.70;;;;;;5052394;28;20043;-68
2022/08/03 13:06:58;;;;;;;16.08;2.28;;;28.90;99.30;;;;;;5059507;28;20048;-68
2022/08/03 13:09:25;;;;;;;20.48;2.63;;;29.00;99.10;;;;;;5060773;28;20346;-67
2022/08/03 13:12:11;;;;;;;17.45;2.33;;;29.00;99.00;;;;;;5052126;28;20106;-67